sensor_id;sensor_type;location;lat;lon;timestamp;P1;durP1;ratioP1;P2;durP2;ratioP2
59040;SDS011;44825;53.200;6.448;2023-12-20T00:01:41;19.58;;;2.05;;
59040;SDS011;44825;53.200;6.448;2023-12-20T00:04:07;12.32;;;1.77;;
59040;SDS011;44825;53.200;6.448;2023-12-20T00:06:33;10.90;;;1.85;;
59040;SDS011;44825;53.200;6.448;2023-12-20T00:08:59;10.60;;;1.80;;
59040;SDS011;44825;53.200;6.448;2023-12-20T00:11:25;11.60;;;1.88;;
59040;SDS011;44825;53.200;6.448;2023-12-20T00:13:51;13.20;;;2.47;;
59040;SDS011;44825;53.200;6.448;2023-12-20T00:16:18;12.05;;;2.25;;
59040;SDS011;44825;53.200;6.448;2023-12-20T00:18:44;17.83;;;2.65;;
59040;SDS011;44825;53.200;6.448;2023-12-20T00:21:10;14.90;;;2.25;;
59040;SDS011;44825;53.200;6.448;2023-12-20T00:23:36;16.27;;;2.05;;
59040;SDS011;44825;53.200;6.448;2023-12-20T00:26:02;13.55;;;1.60;;
59040;SDS011;44825;53.200;6.448;2023-12-20T00:28:28;12.23;;;1.90;;
59040;SDS011;44825;53.200;6.448;2023-12-20T00:30:54;13.80;;;2.20;;
59040;SDS011;44825;53.200;6.448;2023-12-20T00:33:20;22.02;;;3.25;;
59040;SDS011;44825;53.200;6.448;2023-12-20T00:35:47;11.73;;;2.00;;
59040;SDS011;44825;53.200;6.448;2023-12-20T00:38:13;14.10;;;1.65;;
59040;SDS011;44825;53.200;6.448;2023-12-20T00:40:39;12.82;;;2.13;;
59040;SDS011;44825;53.200;6.448;2023-12-20T00:43:05;17.27;;;1.92;;
59040;SDS011;44825;53.200;6.448;2023-12-20T00:45:31;15.32;;;2.25;;
59040;SDS011;44825;53.200;6.448;2023-12-20T00:47:57;11.45;;;2.10;;
59040;SDS011;44825;53.200;6.448;2023-12-20T00:50:24;12.85;;;1.83;;
59040;SDS011;44825;53.200;6.448;2023-12-20T00:52:50;13.32;;;2.03;;
59040;SDS011;44825;53.200;6.448;2023-12-20T00:55:16;11.45;;;2.08;;
59040;SDS011;44825;53.200;6.448;2023-12-20T00:57:42;8.98;;;1.30;;
59040;SDS011;44825;53.200;6.448;2023-12-20T01:00:08;12.55;;;2.05;;
59040;SDS011;44825;53.200;6.448;2023-12-20T01:02:35;8.52;;;1.80;;
59040;SDS011;44825;53.200;6.448;2023-12-20T01:05:01;14.20;;;2.13;;
59040;SDS011;44825;53.200;6.448;2023-12-20T01:07:27;16.58;;;2.05;;
59040;SDS011;44825;53.200;6.448;2023-12-20T01:09:53;11.63;;;2.40;;
59040;SDS011;44825;53.200;6.448;2023-12-20T01:12:19;12.25;;;2.00;;
59040;SDS011;44825;53.200;6.448;2023-12-20T01:14:46;12.73;;;2.17;;
59040;SDS011;44825;53.200;6.448;2023-12-20T01:17:12;14.18;;;2.63;;
59040;SDS011;44825;53.200;6.448;2023-12-20T01:19:38;12.25;;;1.88;;
59040;SDS011;44825;53.200;6.448;2023-12-20T01:22:04;12.23;;;2.08;;
59040;SDS011;44825;53.200;6.448;2023-12-20T01:24:30;11.65;;;1.85;;
59040;SDS011;44825;53.200;6.448;2023-12-20T01:26:56;14.23;;;2.00;;
59040;SDS011;44825;53.200;6.448;2023-12-20T01:29:22;12.10;;;3.55;;
59040;SDS011;44825;53.200;6.448;2023-12-20T01:31:48;17.63;;;2.38;;
59040;SDS011;44825;53.200;6.448;2023-12-20T01:34:15;15.07;;;2.63;;
59040;SDS011;44825;53.200;6.448;2023-12-20T01:36:41;16.23;;;2.20;;
59040;SDS011;44825;53.200;6.448;2023-12-20T01:39:07;24.70;;;3.17;;
59040;SDS011;44825;53.200;6.448;2023-12-20T01:41:33;18.63;;;3.90;;
59040;SDS011;44825;53.200;6.448;2023-12-20T01:43:59;18.15;;;2.25;;
59040;SDS011;44825;53.200;6.448;2023-12-20T01:46:25;11.77;;;2.65;;
59040;SDS011;44825;53.200;6.448;2023-12-20T01:48:51;15.30;;;1.90;;
59040;SDS011;44825;53.200;6.448;2023-12-20T01:51:18;13.43;;;2.38;;
59040;SDS011;44825;53.200;6.448;2023-12-20T01:53:45;9.57;;;1.80;;
59040;SDS011;44825;53.200;6.448;2023-12-20T01:56:11;12.38;;;2.13;;
59040;SDS011;44825;53.200;6.448;2023-12-20T01:58:39;12.43;;;2.00;;
59040;SDS011;44825;53.200;6.448;2023-12-20T02:01:07;15.93;;;2.35;;
59040;SDS011;44825;53.200;6.448;2023-12-20T02:03:33;13.77;;;2.42;;
59040;SDS011;44825;53.200;6.448;2023-12-20T02:06:01;9.15;;;1.90;;
59040;SDS011;44825;53.200;6.448;2023-12-20T02:08:27;16.20;;;2.75;;
59040;SDS011;44825;53.200;6.448;2023-12-20T02:10:54;12.40;;;1.80;;
59040;SDS011;44825;53.200;6.448;2023-12-20T02:13:21;15.25;;;1.77;;
59040;SDS011;44825;53.200;6.448;2023-12-20T02:15:47;16.73;;;2.13;;
59040;SDS011;44825;53.200;6.448;2023-12-20T02:18:13;13.77;;;2.80;;
59040;SDS011;44825;53.200;6.448;2023-12-20T02:20:41;13.50;;;2.30;;
59040;SDS011;44825;53.200;6.448;2023-12-20T02:23:07;13.10;;;2.67;;
59040;SDS011;44825;53.200;6.448;2023-12-20T02:25:33;19.42;;;3.05;;
59040;SDS011;44825;53.200;6.448;2023-12-20T02:28:00;18.40;;;2.90;;
59040;SDS011;44825;53.200;6.448;2023-12-20T02:30:26;18.88;;;3.28;;
59040;SDS011;44825;53.200;6.448;2023-12-20T02:32:52;24.45;;;3.45;;
59040;SDS011;44825;53.200;6.448;2023-12-20T02:35:19;23.25;;;3.45;;
59040;SDS011;44825;53.200;6.448;2023-12-20T02:37:45;27.33;;;3.58;;
59040;SDS011;44825;53.200;6.448;2023-12-20T02:40:11;22.77;;;4.38;;
59040;SDS011;44825;53.200;6.448;2023-12-20T02:42:37;25.40;;;3.88;;
59040;SDS011;44825;53.200;6.448;2023-12-20T02:45:04;24.48;;;3.28;;
59040;SDS011;44825;53.200;6.448;2023-12-20T02:47:30;19.20;;;3.42;;
59040;SDS011;44825;53.200;6.448;2023-12-20T02:49:56;17.48;;;3.63;;
59040;SDS011;44825;53.200;6.448;2023-12-20T02:52:23;15.48;;;3.13;;
59040;SDS011;44825;53.200;6.448;2023-12-20T02:54:49;24.83;;;4.10;;
59040;SDS011;44825;53.200;6.448;2023-12-20T02:57:15;20.33;;;4.43;;
59040;SDS011;44825;53.200;6.448;2023-12-20T02:59:41;23.58;;;4.10;;
59040;SDS011;44825;53.200;6.448;2023-12-20T03:02:07;22.45;;;3.85;;
59040;SDS011;44825;53.200;6.448;2023-12-20T03:04:33;23.92;;;4.55;;
59040;SDS011;44825;53.200;6.448;2023-12-20T03:07:00;21.92;;;4.32;;
59040;SDS011;44825;53.200;6.448;2023-12-20T03:09:26;23.17;;;4.43;;
59040;SDS011;44825;53.200;6.448;2023-12-20T03:11:52;25.35;;;4.25;;
59040;SDS011;44825;53.200;6.448;2023-12-20T03:14:18;19.45;;;3.63;;
59040;SDS011;44825;53.200;6.448;2023-12-20T03:16:50;26.75;;;4.03;;
59040;SDS011;44825;53.200;6.448;2023-12-20T03:19:16;21.27;;;3.70;;
59040;SDS011;44825;53.200;6.448;2023-12-20T03:21:43;21.80;;;3.22;;
59040;SDS011;44825;53.200;6.448;2023-12-20T03:24:09;21.38;;;3.58;;
59040;SDS011;44825;53.200;6.448;2023-12-20T03:26:35;21.48;;;3.28;;
59040;SDS011;44825;53.200;6.448;2023-12-20T03:29:01;21.98;;;4.43;;
59040;SDS011;44825;53.200;6.448;2023-12-20T03:31:27;23.95;;;3.95;;
59040;SDS011;44825;53.200;6.448;2023-12-20T03:33:53;26.10;;;3.97;;
59040;SDS011;44825;53.200;6.448;2023-12-20T03:36:20;22.13;;;3.55;;
59040;SDS011;44825;53.200;6.448;2023-12-20T03:38:46;21.30;;;3.22;;
59040;SDS011;44825;53.200;6.448;2023-12-20T03:41:12;22.50;;;4.15;;
59040;SDS011;44825;53.200;6.448;2023-12-20T03:43:38;30.40;;;4.35;;
59040;SDS011;44825;53.200;6.448;2023-12-20T03:46:05;21.77;;;3.92;;
59040;SDS011;44825;53.200;6.448;2023-12-20T03:48:31;19.45;;;3.90;;
59040;SDS011;44825;53.200;6.448;2023-12-20T03:50:57;22.90;;;3.65;;
59040;SDS011;44825;53.200;6.448;2023-12-20T03:53:23;26.67;;;4.53;;
59040;SDS011;44825;53.200;6.448;2023-12-20T03:55:49;27.25;;;3.53;;
59040;SDS011;44825;53.200;6.448;2023-12-20T03:58:15;23.90;;;4.55;;
59040;SDS011;44825;53.200;6.448;2023-12-20T04:00:41;28.02;;;4.20;;
59040;SDS011;44825;53.200;6.448;2023-12-20T04:03:07;17.90;;;3.65;;
59040;SDS011;44825;53.200;6.448;2023-12-20T04:05:33;23.90;;;3.85;;
59040;SDS011;44825;53.200;6.448;2023-12-20T04:08:01;23.25;;;4.10;;
59040;SDS011;44825;53.200;6.448;2023-12-20T04:10:28;29.92;;;4.53;;
59040;SDS011;44825;53.200;6.448;2023-12-20T04:12:54;25.25;;;4.70;;
59040;SDS011;44825;53.200;6.448;2023-12-20T04:15:20;23.10;;;3.42;;
59040;SDS011;44825;53.200;6.448;2023-12-20T04:17:46;18.27;;;4.15;;
59040;SDS011;44825;53.200;6.448;2023-12-20T04:20:12;20.90;;;3.58;;
59040;SDS011;44825;53.200;6.448;2023-12-20T04:22:38;24.20;;;4.35;;
59040;SDS011;44825;53.200;6.448;2023-12-20T04:25:04;22.80;;;4.15;;
59040;SDS011;44825;53.200;6.448;2023-12-20T04:27:30;26.05;;;4.53;;
59040;SDS011;44825;53.200;6.448;2023-12-20T04:29:56;23.88;;;3.72;;
59040;SDS011;44825;53.200;6.448;2023-12-20T04:32:22;20.95;;;4.38;;
59040;SDS011;44825;53.200;6.448;2023-12-20T04:34:48;33.00;;;3.67;;
59040;SDS011;44825;53.200;6.448;2023-12-20T04:37:15;26.45;;;3.40;;
59040;SDS011;44825;53.200;6.448;2023-12-20T04:39:41;20.92;;;3.83;;
59040;SDS011;44825;53.200;6.448;2023-12-20T04:42:07;26.05;;;3.85;;
59040;SDS011;44825;53.200;6.448;2023-12-20T04:44:33;22.95;;;3.33;;
59040;SDS011;44825;53.200;6.448;2023-12-20T04:46:59;24.33;;;3.92;;
59040;SDS011;44825;53.200;6.448;2023-12-20T04:49:26;25.83;;;4.00;;
59040;SDS011;44825;53.200;6.448;2023-12-20T04:51:52;23.65;;;4.32;;
59040;SDS011;44825;53.200;6.448;2023-12-20T04:54:18;26.27;;;4.20;;
59040;SDS011;44825;53.200;6.448;2023-12-20T04:56:44;25.67;;;3.72;;
59040;SDS011;44825;53.200;6.448;2023-12-20T04:59:10;24.40;;;4.38;;
59040;SDS011;44825;53.200;6.448;2023-12-20T05:01:36;24.30;;;4.28;;
59040;SDS011;44825;53.200;6.448;2023-12-20T05:04:02;26.42;;;5.07;;
59040;SDS011;44825;53.200;6.448;2023-12-20T05:06:28;24.17;;;4.30;;
59040;SDS011;44825;53.200;6.448;2023-12-20T05:08:54;28.50;;;4.10;;
59040;SDS011;44825;53.200;6.448;2023-12-20T05:11:21;29.20;;;4.70;;
59040;SDS011;44825;53.200;6.448;2023-12-20T05:13:47;29.15;;;4.30;;
59040;SDS011;44825;53.200;6.448;2023-12-20T05:16:13;21.63;;;3.75;;
59040;SDS011;44825;53.200;6.448;2023-12-20T05:18:39;21.77;;;4.53;;
59040;SDS011;44825;53.200;6.448;2023-12-20T05:21:05;25.60;;;4.10;;
59040;SDS011;44825;53.200;6.448;2023-12-20T05:23:31;20.55;;;3.85;;
59040;SDS011;44825;53.200;6.448;2023-12-20T05:25:58;25.20;;;3.75;;
59040;SDS011;44825;53.200;6.448;2023-12-20T05:28:24;25.88;;;4.10;;
59040;SDS011;44825;53.200;6.448;2023-12-20T05:30:50;19.00;;;3.22;;
59040;SDS011;44825;53.200;6.448;2023-12-20T05:33:16;19.90;;;3.63;;
59040;SDS011;44825;53.200;6.448;2023-12-20T05:35:42;26.40;;;4.40;;
59040;SDS011;44825;53.200;6.448;2023-12-20T05:38:08;20.77;;;4.25;;
59040;SDS011;44825;53.200;6.448;2023-12-20T05:40:35;26.50;;;4.15;;
59040;SDS011;44825;53.200;6.448;2023-12-20T05:43:01;27.17;;;4.78;;
59040;SDS011;44825;53.200;6.448;2023-12-20T05:45:27;23.88;;;4.15;;
59040;SDS011;44825;53.200;6.448;2023-12-20T05:47:53;21.42;;;3.60;;
59040;SDS011;44825;53.200;6.448;2023-12-20T05:50:19;24.90;;;4.18;;
59040;SDS011;44825;53.200;6.448;2023-12-20T05:52:46;20.88;;;3.75;;
59040;SDS011;44825;53.200;6.448;2023-12-20T05:55:12;28.33;;;3.53;;
59040;SDS011;44825;53.200;6.448;2023-12-20T05:57:38;21.58;;;3.75;;
59040;SDS011;44825;53.200;6.448;2023-12-20T06:00:04;19.92;;;3.75;;
59040;SDS011;44825;53.200;6.448;2023-12-20T06:02:31;17.08;;;4.07;;
59040;SDS011;44825;53.200;6.448;2023-12-20T06:04:57;22.77;;;4.30;;
59040;SDS011;44825;53.200;6.448;2023-12-20T06:07:23;37.25;;;4.70;;
59040;SDS011;44825;53.200;6.448;2023-12-20T06:09:49;27.92;;;4.28;;
59040;SDS011;44825;53.200;6.448;2023-12-20T06:12:16;28.42;;;5.72;;
59040;SDS011;44825;53.200;6.448;2023-12-20T06:14:42;22.77;;;3.88;;
59040;SDS011;44825;53.200;6.448;2023-12-20T06:17:08;21.85;;;3.72;;
59040;SDS011;44825;53.200;6.448;2023-12-20T06:19:34;25.80;;;4.00;;
59040;SDS011;44825;53.200;6.448;2023-12-20T06:22:00;27.02;;;4.15;;
59040;SDS011;44825;53.200;6.448;2023-12-20T06:24:26;21.63;;;3.60;;
59040;SDS011;44825;53.200;6.448;2023-12-20T06:26:53;28.38;;;4.43;;
59040;SDS011;44825;53.200;6.448;2023-12-20T06:29:20;24.55;;;3.85;;
59040;SDS011;44825;53.200;6.448;2023-12-20T06:31:46;26.90;;;4.65;;
59040;SDS011;44825;53.200;6.448;2023-12-20T06:34:12;28.40;;;6.55;;
59040;SDS011;44825;53.200;6.448;2023-12-20T06:36:38;24.80;;;4.30;;
59040;SDS011;44825;53.200;6.448;2023-12-20T06:39:04;25.58;;;4.05;;
59040;SDS011;44825;53.200;6.448;2023-12-20T06:41:30;20.30;;;4.03;;
59040;SDS011;44825;53.200;6.448;2023-12-20T06:43:56;28.17;;;4.90;;
59040;SDS011;44825;53.200;6.448;2023-12-20T06:46:23;19.02;;;4.00;;
59040;SDS011;44825;53.200;6.448;2023-12-20T06:48:49;16.88;;;3.65;;
59040;SDS011;44825;53.200;6.448;2023-12-20T06:51:15;30.70;;;3.78;;
59040;SDS011;44825;53.200;6.448;2023-12-20T06:53:42;26.70;;;4.55;;
59040;SDS011;44825;53.200;6.448;2023-12-20T06:56:08;18.13;;;3.35;;
59040;SDS011;44825;53.200;6.448;2023-12-20T06:58:35;21.48;;;4.57;;
59040;SDS011;44825;53.200;6.448;2023-12-20T07:01:02;21.35;;;4.35;;
59040;SDS011;44825;53.200;6.448;2023-12-20T07:03:29;20.33;;;3.63;;
59040;SDS011;44825;53.200;6.448;2023-12-20T07:05:55;20.25;;;3.70;;
59040;SDS011;44825;53.200;6.448;2023-12-20T07:08:21;19.13;;;3.67;;
59040;SDS011;44825;53.200;6.448;2023-12-20T07:10:47;27.27;;;4.38;;
59040;SDS011;44825;53.200;6.448;2023-12-20T07:13:13;23.65;;;4.70;;
59040;SDS011;44825;53.200;6.448;2023-12-20T07:15:40;25.88;;;4.35;;
59040;SDS011;44825;53.200;6.448;2023-12-20T07:18:06;29.85;;;4.60;;
59040;SDS011;44825;53.200;6.448;2023-12-20T07:20:32;21.65;;;4.10;;
59040;SDS011;44825;53.200;6.448;2023-12-20T07:22:58;22.17;;;4.10;;
59040;SDS011;44825;53.200;6.448;2023-12-20T07:25:24;18.17;;;3.85;;
59040;SDS011;44825;53.200;6.448;2023-12-20T07:27:50;19.45;;;4.43;;
59040;SDS011;44825;53.200;6.448;2023-12-20T07:30:16;28.00;;;5.03;;
59040;SDS011;44825;53.200;6.448;2023-12-20T07:32:42;20.52;;;4.32;;
59040;SDS011;44825;53.200;6.448;2023-12-20T07:35:08;20.25;;;4.47;;
59040;SDS011;44825;53.200;6.448;2023-12-20T07:37:34;24.17;;;4.40;;
59040;SDS011;44825;53.200;6.448;2023-12-20T07:40:00;24.35;;;4.03;;
59040;SDS011;44825;53.200;6.448;2023-12-20T07:42:26;26.80;;;4.82;;
59040;SDS011;44825;53.200;6.448;2023-12-20T07:44:52;20.90;;;3.83;;
59040;SDS011;44825;53.200;6.448;2023-12-20T07:47:19;23.52;;;3.90;;
59040;SDS011;44825;53.200;6.448;2023-12-20T07:49:47;25.67;;;4.88;;
59040;SDS011;44825;53.200;6.448;2023-12-20T07:52:13;22.77;;;3.92;;
59040;SDS011;44825;53.200;6.448;2023-12-20T07:54:39;20.35;;;3.60;;
59040;SDS011;44825;53.200;6.448;2023-12-20T07:57:05;23.13;;;4.22;;
59040;SDS011;44825;53.200;6.448;2023-12-20T07:59:31;27.05;;;4.03;;
59040;SDS011;44825;53.200;6.448;2023-12-20T08:01:57;23.77;;;4.03;;
59040;SDS011;44825;53.200;6.448;2023-12-20T08:04:23;26.88;;;4.50;;
59040;SDS011;44825;53.200;6.448;2023-12-20T08:06:50;17.55;;;3.90;;
59040;SDS011;44825;53.200;6.448;2023-12-20T08:09:16;24.75;;;4.78;;
59040;SDS011;44825;53.200;6.448;2023-12-20T08:11:45;23.38;;;4.63;;
59040;SDS011;44825;53.200;6.448;2023-12-20T08:14:15;22.92;;;4.25;;
59040;SDS011;44825;53.200;6.448;2023-12-20T08:16:41;21.77;;;4.05;;
59040;SDS011;44825;53.200;6.448;2023-12-20T08:19:07;21.88;;;3.72;;
59040;SDS011;44825;53.200;6.448;2023-12-20T08:21:34;22.25;;;4.75;;
59040;SDS011;44825;53.200;6.448;2023-12-20T08:24:00;21.70;;;3.70;;
59040;SDS011;44825;53.200;6.448;2023-12-20T08:26:26;17.10;;;3.00;;
59040;SDS011;44825;53.200;6.448;2023-12-20T08:28:52;23.33;;;4.05;;
59040;SDS011;44825;53.200;6.448;2023-12-20T08:31:18;24.45;;;4.38;;
59040;SDS011;44825;53.200;6.448;2023-12-20T08:33:45;17.98;;;3.40;;
59040;SDS011;44825;53.200;6.448;2023-12-20T08:36:11;18.02;;;3.25;;
59040;SDS011;44825;53.200;6.448;2023-12-20T08:38:37;20.65;;;4.32;;
59040;SDS011;44825;53.200;6.448;2023-12-20T08:41:04;22.67;;;3.80;;
59040;SDS011;44825;53.200;6.448;2023-12-20T08:43:30;17.83;;;2.75;;
59040;SDS011;44825;53.200;6.448;2023-12-20T08:45:56;20.38;;;3.42;;
59040;SDS011;44825;53.200;6.448;2023-12-20T08:48:23;17.40;;;3.03;;
59040;SDS011;44825;53.200;6.448;2023-12-20T08:50:49;17.33;;;2.88;;
59040;SDS011;44825;53.200;6.448;2023-12-20T08:53:17;11.27;;;1.50;;
59040;SDS011;44825;53.200;6.448;2023-12-20T08:55:43;6.45;;;0.98;;
59040;SDS011;44825;53.200;6.448;2023-12-20T08:58:09;8.18;;;1.30;;
59040;SDS011;44825;53.200;6.448;2023-12-20T09:00:35;10.57;;;1.20;;
59040;SDS011;44825;53.200;6.448;2023-12-20T09:03:01;8.85;;;1.27;;
59040;SDS011;44825;53.200;6.448;2023-12-20T09:05:28;7.93;;;1.35;;
59040;SDS011;44825;53.200;6.448;2023-12-20T09:07:54;11.73;;;1.73;;
59040;SDS011;44825;53.200;6.448;2023-12-20T09:10:20;13.30;;;1.85;;
59040;SDS011;44825;53.200;6.448;2023-12-20T09:12:53;14.77;;;1.48;;
59040;SDS011;44825;53.200;6.448;2023-12-20T09:15:23;11.30;;;1.65;;
59040;SDS011;44825;53.200;6.448;2023-12-20T09:17:49;10.10;;;1.52;;
59040;SDS011;44825;53.200;6.448;2023-12-20T09:20:15;7.95;;;1.13;;
59040;SDS011;44825;53.200;6.448;2023-12-20T09:22:41;7.80;;;1.40;;
59040;SDS011;44825;53.200;6.448;2023-12-20T09:25:07;11.63;;;1.45;;
59040;SDS011;44825;53.200;6.448;2023-12-20T09:27:33;3.75;;;0.90;;
59040;SDS011;44825;53.200;6.448;2023-12-20T09:29:59;4.80;;;0.80;;
59040;SDS011;44825;53.200;6.448;2023-12-20T09:32:25;6.95;;;1.10;;
59040;SDS011;44825;53.200;6.448;2023-12-20T09:34:51;3.50;;;0.63;;
59040;SDS011;44825;53.200;6.448;2023-12-20T09:37:17;7.22;;;0.95;;
59040;SDS011;44825;53.200;6.448;2023-12-20T09:39:43;8.50;;;0.80;;
59040;SDS011;44825;53.200;6.448;2023-12-20T09:42:11;7.40;;;0.95;;
59040;SDS011;44825;53.200;6.448;2023-12-20T09:44:37;8.90;;;1.27;;
59040;SDS011;44825;53.200;6.448;2023-12-20T09:47:07;10.65;;;1.42;;
59040;SDS011;44825;53.200;6.448;2023-12-20T09:49:33;9.15;;;2.97;;
59040;SDS011;44825;53.200;6.448;2023-12-20T09:52:00;10.50;;;1.13;;
59040;SDS011;44825;53.200;6.448;2023-12-20T09:54:26;8.35;;;1.45;;
59040;SDS011;44825;53.200;6.448;2023-12-20T09:56:54;5.20;;;1.10;;
59040;SDS011;44825;53.200;6.448;2023-12-20T09:59:20;8.93;;;1.40;;
59040;SDS011;44825;53.200;6.448;2023-12-20T10:01:46;11.38;;;1.35;;
59040;SDS011;44825;53.200;6.448;2023-12-20T10:04:12;7.53;;;1.60;;
59040;SDS011;44825;53.200;6.448;2023-12-20T10:06:42;11.77;;;1.58;;
59040;SDS011;44825;53.200;6.448;2023-12-20T10:09:11;13.80;;;1.88;;
59040;SDS011;44825;53.200;6.448;2023-12-20T10:11:38;9.75;;;1.48;;
59040;SDS011;44825;53.200;6.448;2023-12-20T10:14:04;8.82;;;1.40;;
59040;SDS011;44825;53.200;6.448;2023-12-20T10:16:31;12.68;;;1.90;;
59040;SDS011;44825;53.200;6.448;2023-12-20T10:18:57;11.70;;;2.05;;
59040;SDS011;44825;53.200;6.448;2023-12-20T10:21:24;10.23;;;2.10;;
59040;SDS011;44825;53.200;6.448;2023-12-20T10:23:51;14.90;;;1.95;;
59040;SDS011;44825;53.200;6.448;2023-12-20T10:26:21;12.82;;;1.98;;
59040;SDS011;44825;53.200;6.448;2023-12-20T10:28:50;9.23;;;1.80;;
59040;SDS011;44825;53.200;6.448;2023-12-20T10:31:26;13.88;;;2.22;;
59040;SDS011;44825;53.200;6.448;2023-12-20T10:33:53;14.88;;;1.92;;
59040;SDS011;44825;53.200;6.448;2023-12-20T10:36:19;16.98;;;2.30;;
59040;SDS011;44825;53.200;6.448;2023-12-20T10:38:46;15.18;;;1.88;;
59040;SDS011;44825;53.200;6.448;2023-12-20T10:41:14;15.20;;;2.53;;
59040;SDS011;44825;53.200;6.448;2023-12-20T10:43:42;18.05;;;2.35;;
59040;SDS011;44825;53.200;6.448;2023-12-20T10:46:08;19.15;;;2.10;;
59040;SDS011;44825;53.200;6.448;2023-12-20T10:48:35;14.15;;;2.60;;
59040;SDS011;44825;53.200;6.448;2023-12-20T10:51:01;11.65;;;2.05;;
59040;SDS011;44825;53.200;6.448;2023-12-20T10:53:28;14.50;;;2.92;;
59040;SDS011;44825;53.200;6.448;2023-12-20T10:55:55;12.23;;;2.38;;
59040;SDS011;44825;53.200;6.448;2023-12-20T10:58:24;10.32;;;1.98;;
59040;SDS011;44825;53.200;6.448;2023-12-20T11:00:52;11.35;;;1.95;;
59040;SDS011;44825;53.200;6.448;2023-12-20T11:03:23;17.40;;;2.90;;
59040;SDS011;44825;53.200;6.448;2023-12-20T11:05:54;16.95;;;2.80;;
59040;SDS011;44825;53.200;6.448;2023-12-20T11:08:36;13.48;;;2.25;;
59040;SDS011;44825;53.200;6.448;2023-12-20T11:13:37;16.45;;;2.13;;
59040;SDS011;44825;53.200;6.448;2023-12-20T11:16:06;15.18;;;2.20;;
59040;SDS011;44825;53.200;6.448;2023-12-20T11:18:33;22.58;;;2.63;;
59040;SDS011;44825;53.200;6.448;2023-12-20T11:21:02;16.02;;;2.40;;
59040;SDS011;44825;53.200;6.448;2023-12-20T11:23:30;14.68;;;2.33;;
59040;SDS011;44825;53.200;6.448;2023-12-20T11:25:58;20.48;;;2.28;;
59040;SDS011;44825;53.200;6.448;2023-12-20T11:28:24;16.90;;;2.92;;
59040;SDS011;44825;53.200;6.448;2023-12-20T11:30:52;14.73;;;2.28;;
59040;SDS011;44825;53.200;6.448;2023-12-20T11:33:24;13.73;;;2.60;;
59040;SDS011;44825;53.200;6.448;2023-12-20T11:35:51;16.50;;;2.60;;
59040;SDS011;44825;53.200;6.448;2023-12-20T11:38:19;20.25;;;3.20;;
59040;SDS011;44825;53.200;6.448;2023-12-20T11:40:47;18.80;;;2.85;;
59040;SDS011;44825;53.200;6.448;2023-12-20T11:43:29;14.52;;;2.92;;
59040;SDS011;44825;53.200;6.448;2023-12-20T11:45:55;15.07;;;2.50;;
59040;SDS011;44825;53.200;6.448;2023-12-20T11:48:27;17.27;;;2.83;;
59040;SDS011;44825;53.200;6.448;2023-12-20T11:50:54;10.52;;;2.85;;
59040;SDS011;44825;53.200;6.448;2023-12-20T11:53:20;15.93;;;2.78;;
59040;SDS011;44825;53.200;6.448;2023-12-20T11:55:47;21.80;;;2.90;;
59040;SDS011;44825;53.200;6.448;2023-12-20T11:58:13;21.90;;;3.40;;
59040;SDS011;44825;53.200;6.448;2023-12-20T12:00:41;18.08;;;2.88;;
59040;SDS011;44825;53.200;6.448;2023-12-20T12:03:08;18.52;;;3.15;;
59040;SDS011;44825;53.200;6.448;2023-12-20T12:05:34;16.23;;;2.80;;
59040;SDS011;44825;53.200;6.448;2023-12-20T12:08:01;26.23;;;4.22;;
59040;SDS011;44825;53.200;6.448;2023-12-20T12:10:28;11.13;;;2.58;;
59040;SDS011;44825;53.200;6.448;2023-12-20T12:12:54;14.88;;;2.80;;
59040;SDS011;44825;53.200;6.448;2023-12-20T12:15:21;15.50;;;2.72;;
59040;SDS011;44825;53.200;6.448;2023-12-20T12:17:56;14.23;;;2.75;;
59040;SDS011;44825;53.200;6.448;2023-12-20T12:20:23;13.02;;;2.45;;
59040;SDS011;44825;53.200;6.448;2023-12-20T12:23:02;19.45;;;3.78;;
59040;SDS011;44825;53.200;6.448;2023-12-20T12:25:29;18.10;;;3.20;;
59040;SDS011;44825;53.200;6.448;2023-12-20T12:27:56;13.65;;;2.10;;
59040;SDS011;44825;53.200;6.448;2023-12-20T12:30:22;15.63;;;2.35;;
59040;SDS011;44825;53.200;6.448;2023-12-20T12:32:48;15.63;;;2.63;;
59040;SDS011;44825;53.200;6.448;2023-12-20T12:35:14;12.35;;;1.92;;
59040;SDS011;44825;53.200;6.448;2023-12-20T12:37:41;15.00;;;2.38;;
59040;SDS011;44825;53.200;6.448;2023-12-20T12:40:10;11.75;;;1.98;;
59040;SDS011;44825;53.200;6.448;2023-12-20T12:42:37;12.07;;;2.22;;
59040;SDS011;44825;53.200;6.448;2023-12-20T12:45:03;14.13;;;2.35;;
59040;SDS011;44825;53.200;6.448;2023-12-20T12:47:30;12.95;;;2.13;;
59040;SDS011;44825;53.200;6.448;2023-12-20T12:49:56;12.30;;;1.77;;
59040;SDS011;44825;53.200;6.448;2023-12-20T12:52:22;13.88;;;2.03;;
59040;SDS011;44825;53.200;6.448;2023-12-20T12:54:48;16.30;;;2.75;;
59040;SDS011;44825;53.200;6.448;2023-12-20T12:57:15;11.32;;;2.13;;
59040;SDS011;44825;53.200;6.448;2023-12-20T12:59:42;17.52;;;2.28;;
59040;SDS011;44825;53.200;6.448;2023-12-20T13:02:10;17.85;;;3.22;;
59040;SDS011;44825;53.200;6.448;2023-12-20T13:04:36;15.75;;;3.55;;
59040;SDS011;44825;53.200;6.448;2023-12-20T13:07:02;10.40;;;1.83;;
59040;SDS011;44825;53.200;6.448;2023-12-20T13:09:29;19.73;;;3.58;;
59040;SDS011;44825;53.200;6.448;2023-12-20T13:11:55;11.23;;;2.40;;
59040;SDS011;44825;53.200;6.448;2023-12-20T13:14:21;16.05;;;2.22;;
59040;SDS011;44825;53.200;6.448;2023-12-20T13:16:47;17.98;;;2.63;;
59040;SDS011;44825;53.200;6.448;2023-12-20T13:19:13;13.30;;;3.28;;
59040;SDS011;44825;53.200;6.448;2023-12-20T13:21:39;22.00;;;3.20;;
59040;SDS011;44825;53.200;6.448;2023-12-20T13:24:06;15.07;;;2.90;;
59040;SDS011;44825;53.200;6.448;2023-12-20T13:26:32;14.50;;;2.03;;
59040;SDS011;44825;53.200;6.448;2023-12-20T13:28:58;15.45;;;2.70;;
59040;SDS011;44825;53.200;6.448;2023-12-20T13:31:24;16.00;;;2.15;;
59040;SDS011;44825;53.200;6.448;2023-12-20T13:33:50;11.60;;;2.03;;
59040;SDS011;44825;53.200;6.448;2023-12-20T13:36:17;11.43;;;2.17;;
59040;SDS011;44825;53.200;6.448;2023-12-20T13:38:44;14.20;;;2.60;;
59040;SDS011;44825;53.200;6.448;2023-12-20T13:41:10;12.60;;;2.22;;
59040;SDS011;44825;53.200;6.448;2023-12-20T13:43:36;11.13;;;1.73;;
59040;SDS011;44825;53.200;6.448;2023-12-20T13:46:03;10.00;;;1.80;;
59040;SDS011;44825;53.200;6.448;2023-12-20T13:48:29;12.35;;;1.95;;
59040;SDS011;44825;53.200;6.448;2023-12-20T13:50:55;12.07;;;2.17;;
59040;SDS011;44825;53.200;6.448;2023-12-20T13:53:21;11.23;;;1.52;;
59040;SDS011;44825;53.200;6.448;2023-12-20T13:55:47;14.25;;;2.00;;
59040;SDS011;44825;53.200;6.448;2023-12-20T13:58:13;7.07;;;1.75;;
59040;SDS011;44825;53.200;6.448;2023-12-20T14:00:40;6.15;;;1.27;;
59040;SDS011;44825;53.200;6.448;2023-12-20T14:03:06;8.88;;;1.38;;
59040;SDS011;44825;53.200;6.448;2023-12-20T14:05:32;9.75;;;1.85;;
59040;SDS011;44825;53.200;6.448;2023-12-20T14:07:58;7.60;;;1.30;;
59040;SDS011;44825;53.200;6.448;2023-12-20T14:10:25;8.60;;;1.27;;
59040;SDS011;44825;53.200;6.448;2023-12-20T14:12:51;8.90;;;1.35;;
59040;SDS011;44825;53.200;6.448;2023-12-20T14:15:17;9.35;;;1.65;;
59040;SDS011;44825;53.200;6.448;2023-12-20T14:17:44;7.70;;;1.30;;
59040;SDS011;44825;53.200;6.448;2023-12-20T14:20:10;6.60;;;1.13;;
59040;SDS011;44825;53.200;6.448;2023-12-20T14:22:39;6.65;;;1.20;;
59040;SDS011;44825;53.200;6.448;2023-12-20T14:25:10;7.40;;;1.33;;
59040;SDS011;44825;53.200;6.448;2023-12-20T14:27:37;7.22;;;1.17;;
59040;SDS011;44825;53.200;6.448;2023-12-20T14:30:03;7.95;;;1.60;;
59040;SDS011;44825;53.200;6.448;2023-12-20T14:32:30;9.07;;;1.50;;
59040;SDS011;44825;53.200;6.448;2023-12-20T14:34:56;8.80;;;1.45;;